Sado Airport

Current Flights

Departures
Number Departure To Airline
Arrivals
Number Arrival From Airline
Info
Name: Sado Airport
Identifier:  SDS/RJSD
Local Time:  20. May 18:30
City
Current Weather
 17 C (Humidity: 93%)
  3kt (5km/h / 3mph) from 360°
  Few clouds at 2,200 feet (670 meter)
  Scattered clouds at 3,200 feet (975 meter)
  Broken clouds at 5,000 feet (1,524 meter)
  9km (6 mi.)
 Light/Moderate: Rain
 METAR RJSD 201800Z AUTO 36003KT 270V060 9999 -RA FEW022 SCT032 BKN050 17/16 Q1001

Current Delays

Departures
N/A
Arrivals
N/A